Butler, MO (64730)

11:53 PM CDT on July 27, 2014 (GMT -0500)
Bates Co EMA (KMOBUTLE2) Elev 866 ft | 38.26 °N, 94.33 °W | Change Station

Current weather conditions updated 10 seconds ago

Clear
Clear
70.8 °F
Feels Like 75 °F
N
0.0
Wind Variable Wind from North
Gusts 0.0 mph

Tomorrow is forecast to be Cooler than today.

Today
High -- | Low -- °F
--% Chance of Precip.
Yesterday
High -- | Low -- °F
Precip. -- in
6:15 AM 8:31 PM
New Moon, 1% visible
Pressure 30.09 in
Visibility 10.0 miles
Clouds Clear
Heat Index 75 °F
Dew Point 59 °F
Humidity 66%
Rainfall 0.00 in
Snow Depth Not available.
UV 0.0 out of 12
Pollen 7.50 out of 12
Air Quality Not available.
Flu Activity Not available.
METAR KGLY 280415Z AUTO 35007KT 10SM CLR 19/16 A3009 RMK AO2

More Conditions Fewer Conditions

Pressure 30.09 in
Visibility 10.0 miles
Clouds Clear
Heat Index 75 °F
Dew Point 59 °F
Humidity 66%
Rainfall 0.00 in
Snow Depth Not available.
UV 0.0 out of 12
Pollen 7.50 out of 12
Air Quality Not available.
Flu Activity Not available.
METAR KGLY 280415Z AUTO 35007KT 10SM CLR 19/16 A3009 RMK AO2

More Conditions Fewer Conditions

10-Day Weather Forecast

Almanac

Astronomy

Jul. 27, 2014 Rise Set
Actual Time 6:15 AM CDT 8:31 PM CDT
Civil Twilight 5:45 AM CDT 9:01 PM CDT
Nautical Twilight 5:09 AM CDT 9:37 PM CDT
Astronomical Twilight 4:28 AM CDT 10:17 PM CDT
Moon 7:01 AM CDT (7/27) 8:43 PM CDT (7/27)
Length of Visible Light 15h 15m
Length of Day
14h 16m
Tomorrow will be 1m 44s shorter.
New Moon, 1% of the Moon is Illuminated
Jul 28
New Moon
Aug 3
First Quarter
Aug 10
Full
Aug 17
Last Quarter
Aug 25
New

Yesterday's Extremes

State Highs State Lows

Community

WunderPhotos

Upload Photos

1,738,307 photos uploaded!

Nearby

Snow Depth

Station Depth Elevation
No new snow has been reported.

Earthquake Activity

City Distance Mag. Time & Date
No recent earthquake activity has been reported nearby.
Minimum magnitude displayed is 2.5.

Coastal Water Temperatures

Place Temperature
No Stations Reporting

Nearby Weather Stations

Station Location Temp. Heat Index Dew Point Humidity Wind Precip. Elev Updated Type
Bates Co EMA, BUTLER, MO 70.8 °F 75 °F 59 °F 66% North  at  0.0 mph 0.00 in / hr 866 ft 11:53 PM CDT Rapid Fire
Nurse Laura, Adrian, MO 66.7 °F - 38 °F 35% North  at  0.0 mph 0.00 in / hr 863 ft 11:51 PM CDT Normal
ASKC DSS, Foster, MO 67.5 °F - 61 °F 80% NNW  at  2.2 mph - / hr 778 ft 11:49 PM CDT Normal
Adrian, MO, Adrian, MO 68.7 °F - 58 °F 69% North  at  0.1 mph 0.00 in / hr 879 ft 11:50 PM CDT Normal
Amsterdam, MO 66.9 °F - 46 °F 46% NNE  at  0.0 mph 0.00 in / hr 906 ft 11:53 PM CDT Normal
RAWS STATE LINE KS, Prescott, KS 73 °F 77 °F 57 °F 58% North  at  5 mph 0.00 in / hr 796 ft 10:47 PM CDT MADIS
Cass County, Drexel, MO 63.0 °F - 59 °F 87% NNW  at  0.0 mph 0.00 in / hr 951 ft 11:52 PM CDT Rapid Fire

Show More Stations Show Fewer Stations